Time;durP1;ratioP1;P1;durP2;ratioP2;P2;SDS_P1;SDS_P2;PMS_P1;PMS_P2;Temp;Humidity;BMP_temperature;BMP_pressure;BME280_temperature;BME280_humidity;BME280_pressure;Samples;Min_cycle;Max_cycle;Signal;HPM_P1;HPM_P2
2021/12/18 00:01:46;;;;;;;15.75;12.45;;;;;;;6.56;100.00;104003.66;5009099;28;20025;-61
2021/12/18 00:04:12;;;;;;;18.80;13.40;;;;;;;6.56;100.00;104001.09;5007154;28;20026;-62
2021/12/18 00:06:37;;;;;;;19.25;14.30;;;;;;;6.55;100.00;104005.31;5008865;28;20486;-62
2021/12/18 00:09:04;;;;;;;18.67;14.15;;;;;;;6.54;100.00;104000.94;5009169;28;20029;-62
2021/12/18 00:11:29;;;;;;;18.75;14.57;;;;;;;6.56;100.00;103998.50;5011306;28;20017;-62
2021/12/18 00:13:55;;;;;;;19.98;14.32;;;;;;;6.54;100.00;103992.28;5012932;28;20492;-61
2021/12/18 00:16:20;;;;;;;19.60;14.73;;;;;;;6.55;100.00;103999.28;5011873;28;20314;-61
2021/12/18 00:18:48;;;;;;;17.67;13.07;;;;;;;6.54;100.00;103989.72;5012302;28;20029;-62
2021/12/18 00:21:17;;;;;;;17.65;12.93;;;;;;;6.54;100.00;103988.06;5012177;28;20030;-62
2021/12/18 00:23:43;;;;;;;19.00;13.63;;;;;;;6.54;100.00;103993.22;5011964;28;20092;-62
2021/12/18 00:26:08;;;;;;;16.80;12.82;;;;;;;6.53;100.00;103991.38;5012467;28;20414;-62
2021/12/18 00:28:34;;;;;;;17.88;12.20;;;;;;;6.53;100.00;103987.91;5011875;28;20025;-62
2021/12/18 00:30:59;;;;;;;17.38;12.23;;;;;;;6.52;100.00;103984.41;5012283;28;20029;-62
2021/12/18 00:33:24;;;;;;;15.82;11.80;;;;;;;6.52;100.00;103983.50;5011430;28;20521;-62
2021/12/18 00:35:50;;;;;;;16.38;11.45;;;;;;;6.50;100.00;103975.63;5011957;28;20522;-62
2021/12/18 00:38:15;;;;;;;17.83;11.73;;;;;;;6.50;100.00;103970.47;5012007;28;20533;-62
2021/12/18 00:40:46;;;;;;;16.90;11.18;;;;;;;6.48;100.00;103980.63;5012176;28;20034;-62
2021/12/18 00:43:27;;;;;;;14.95;10.35;;;;;;;6.47;100.00;103971.09;5011804;28;20149;-62
2021/12/18 00:45:52;;;;;;;13.85;11.05;;;;;;;6.47;100.00;103968.50;5011924;28;20482;-62
2021/12/18 00:48:18;;;;;;;14.73;10.07;;;;;;;6.47;100.00;103970.16;5011342;28;20101;-62
2021/12/18 00:50:43;;;;;;;14.20;9.70;;;;;;;6.46;100.00;103968.31;5011477;28;20470;-62
2021/12/18 00:53:09;;;;;;;14.13;9.40;;;;;;;6.46;100.00;103971.81;5011203;28;20355;-62
2021/12/18 00:55:36;;;;;;;13.77;8.75;;;;;;;6.42;100.00;103961.97;5011675;28;20099;-62
2021/12/18 00:58:02;;;;;;;13.02;9.25;;;;;;;6.43;100.00;103962.88;5011814;28;20062;-62
2021/12/18 01:00:27;;;;;;;14.05;9.40;;;;;;;6.41;100.00;103960.16;5011870;28;20021;-62
2021/12/18 01:02:57;;;;;;;13.38;8.57;;;;;;;6.40;100.00;103960.94;5011638;28;20022;-62
2021/12/18 01:05:23;;;;;;;12.13;8.10;;;;;;;6.41;100.00;103970.47;5011242;28;20040;-62
2021/12/18 01:07:49;;;;;;;13.63;9.23;;;;;;;6.41;100.00;103960.16;5011452;28;20045;-62
2021/12/18 01:13:00;;;;;;;11.95;8.70;;;;;;;6.40;100.00;103955.78;5011875;28;20129;-62
2021/12/18 01:23:22;;;;;;;12.43;8.50;;;;;;;6.40;100.00;103950.63;5008053;28;20052;-62
2021/12/18 01:25:49;;;;;;;9.65;6.72;;;;;;;6.39;100.00;103945.28;5010820;28;20429;-60
2021/12/18 01:28:15;;;;;;;11.15;7.65;;;;;;;6.39;100.00;103947.88;5010918;28;20072;-62
2021/12/18 01:30:40;;;;;;;13.40;7.82;;;;;;;6.38;100.00;103944.41;5011118;28;20033;-62
2021/12/18 01:33:06;;;;;;;13.30;8.77;;;;;;;6.39;100.00;103946.22;5011094;28;20025;-62
2021/12/18 01:35:31;;;;;;;11.30;7.95;;;;;;;6.39;100.00;103950.44;5010699;28;20505;-62
2021/12/18 01:37:58;;;;;;;12.95;7.47;;;;;;;6.39;100.00;103956.50;5010929;28;20029;-62
2021/12/18 01:40:24;;;;;;;12.15;7.30;;;;;;;6.38;100.00;103959.84;5010702;28;20041;-62
2021/12/18 01:53:48;;;;;;;12.73;8.90;;;;;;;6.38;100.00;103975.31;5010660;28;20048;-60
2021/12/18 01:56:14;;;;;;;13.30;9.05;;;;;;;6.37;100.00;103973.47;5010808;28;20458;-62
2021/12/18 01:58:40;;;;;;;12.07;8.40;;;;;;;6.38;100.00;103974.41;5010522;28;20024;-61
2021/12/18 02:01:06;;;;;;;15.27;9.63;;;;;;;6.38;100.00;103980.47;5010208;28;20201;-62
2021/12/18 02:03:32;;;;;;;12.52;9.40;;;;;;;6.37;100.00;103983.78;5010439;28;20034;-62
2021/12/18 02:05:58;;;;;;;13.73;10.10;;;;;;;6.38;100.00;103982.13;5010177;28;20148;-62
2021/12/18 02:08:26;;;;;;;15.00;9.70;;;;;;;6.38;100.00;103985.63;5010358;28;20108;-62
2021/12/18 02:11:10;;;;;;;13.80;9.82;;;;;;;6.37;100.00;103978.63;5009990;28;20084;-62
2021/12/18 02:13:57;;;;;;;13.60;10.02;;;;;;;6.36;100.00;103979.41;5010533;28;20196;-62
2021/12/18 02:21:49;;;;;;;15.82;12.45;;;;;;;6.35;100.00;103970.75;5009722;28;20036;-62
2021/12/18 02:24:15;;;;;;;17.63;11.93;;;;;;;6.35;100.00;103967.28;5009712;28;20112;-62
2021/12/18 02:26:41;;;;;;;16.00;10.68;;;;;;;6.34;100.00;103971.53;5005528;28;20017;-61
2021/12/18 02:29:10;;;;;;;17.30;12.13;;;;;;;6.32;100.00;103959.22;5009970;28;20026;-61
2021/12/18 02:31:35;;;;;;;15.70;11.82;;;;;;;6.31;100.00;103958.34;5009799;28;20410;-62
2021/12/18 02:34:02;;;;;;;16.13;11.00;;;;;;;6.32;100.00;103962.72;5009294;28;20057;-62
2021/12/18 02:36:28;;;;;;;16.70;11.68;;;;;;;6.31;100.00;103962.56;5004757;28;20120;-61
2021/12/18 02:43:50;;;;;;;14.50;10.77;;;;;;;6.32;100.00;103959.22;5010219;28;20038;-62
2021/12/18 02:46:20;;;;;;;14.55;10.38;;;;;;;6.31;100.00;103958.34;5009795;28;20034;-61
2021/12/18 02:48:50;;;;;;;18.13;11.77;;;;;;;6.31;100.00;103954.84;5009896;28;20042;-62
2021/12/18 02:51:17;;;;;;;16.25;10.65;;;;;;;6.31;100.00;103955.78;5009179;28;20029;-61
2021/12/18 02:53:45;;;;;;;16.80;10.90;;;;;;;6.31;100.00;103947.13;5009374;28;20030;-62
2021/12/18 02:56:12;;;;;;;15.55;11.45;;;;;;;6.30;100.00;103942.72;5009200;28;20026;-62
2021/12/18 02:58:40;;;;;;;17.30;11.75;;;;;;;6.30;100.00;103943.63;5009151;28;20038;-62
2021/12/18 03:01:07;;;;;;;16.25;11.63;;;;;;;6.29;100.00;103941.81;5009602;28;20034;-62
2021/12/18 03:03:36;;;;;;;15.85;11.43;;;;;;;6.27;100.00;103942.41;5009551;28;20029;-62
2021/12/18 03:25:03;;;;;;;15.95;10.77;;;;;;;6.23;100.00;103931.81;5003856;28;20040;-62
2021/12/18 03:27:29;;;;;;;16.65;11.05;;;;;;;6.21;100.00;103928.16;5009382;28;20026;-62
2021/12/18 03:29:55;;;;;;;15.68;10.88;;;;;;;6.22;100.00;103927.41;5007938;28;20018;-62
2021/12/18 03:32:22;;;;;;;16.33;10.73;;;;;;;6.22;100.00;103923.94;5009411;28;20030;-62
2021/12/18 03:34:48;;;;;;;15.18;10.70;;;;;;;6.21;100.00;103925.59;5009295;28;20474;-62
2021/12/18 03:37:13;;;;;;;16.48;10.82;;;;;;;6.21;100.00;103919.53;5009274;28;20029;-62
2021/12/18 03:39:39;;;;;;;15.15;10.90;;;;;;;6.20;100.00;103922.88;5009301;28;20239;-62
2021/12/18 03:42:06;;;;;;;17.00;10.90;;;;;;;6.19;100.00;103921.94;5009105;28;20045;-62
2021/12/18 03:44:32;;;;;;;17.55;11.82;;;;;;;6.20;100.00;103930.59;5007168;28;20034;-62
2021/12/18 03:46:59;;;;;;;15.85;10.68;;;;;;;6.18;100.00;103930.44;5012453;28;20490;-62
2021/12/18 03:49:24;;;;;;;15.32;10.40;;;;;;;6.18;100.00;103934.69;5012557;28;20065;-61
2021/12/18 03:51:50;;;;;;;16.70;10.65;;;;;;;6.18;100.00;103938.16;5012256;28;20482;-61
2021/12/18 03:54:16;;;;;;;16.60;11.25;;;;;;;6.17;100.00;103935.44;5012988;28;20038;-61
2021/12/18 03:56:41;;;;;;;16.25;10.68;;;;;;;6.16;100.00;103941.34;5012723;28;20030;-61
2021/12/18 03:59:06;;;;;;;16.30;10.55;;;;;;;6.13;100.00;103936.81;5012414;28;20041;-61
2021/12/18 04:01:32;;;;;;;17.65;11.77;;;;;;;6.12;100.00;103942.69;5012589;28;20038;-60
2021/12/18 04:03:57;;;;;;;15.85;10.98;;;;;;;6.12;100.00;103941.03;5012609;28;20435;-61
2021/12/18 04:06:22;;;;;;;14.60;10.60;;;;;;;6.12;100.00;103930.75;5012469;28;20022;-61
2021/12/18 04:08:48;;;;;;;17.98;11.40;;;;;;;6.12;100.00;103942.69;5012329;28;20382;-61
2021/12/18 04:11:13;;;;;;;17.17;10.07;;;;;;;6.10;100.00;103936.47;5012307;28;20053;-61
2021/12/18 04:13:44;;;;;;;15.85;10.13;;;;;;;6.10;100.00;103936.47;5012559;28;20022;-61
2021/12/18 04:16:09;;;;;;;15.00;10.37;;;;;;;6.10;100.00;103941.63;5012746;28;20109;-61
2021/12/18 04:18:35;;;;;;;16.40;11.35;;;;;;;6.10;100.00;103936.47;5012532;28;20695;-61
2021/12/18 04:21:00;;;;;;;16.27;11.30;;;;;;;6.10;100.00;103936.47;5011459;28;20198;-61
2021/12/18 04:23:25;;;;;;;17.77;11.43;;;;;;;6.08;100.00;103938.00;5011643;28;20030;-61
2021/12/18 04:25:51;;;;;;;15.73;10.35;;;;;;;6.07;100.00;103941.31;5012277;28;20479;-60
2021/12/18 04:28:16;;;;;;;15.32;10.38;;;;;;;6.07;100.00;103936.19;5012404;28;20130;-61
2021/12/18 04:30:42;;;;;;;17.20;11.13;;;;;;;6.07;100.00;103939.66;5011762;28;20391;-60
2021/12/18 04:33:07;;;;;;;15.82;10.25;;;;;;;6.06;100.00;103940.41;5011552;28;20036;-59
2021/12/18 04:35:33;;;;;;;18.27;11.07;;;;;;;6.06;100.00;103942.09;5012005;28;20080;-60
2021/12/18 04:37:58;;;;;;;15.27;10.15;;;;;;;6.05;100.00;103940.22;5012110;28;20022;-60
2021/12/18 04:40:26;;;;;;;16.00;11.05;;;;;;;6.05;100.00;103935.06;5011920;28;20051;-60
2021/12/18 04:42:55;;;;;;;17.33;10.35;;;;;;;6.05;100.00;103946.31;5011193;28;20045;-61
2021/12/18 04:45:21;;;;;;;15.93;11.05;;;;;;;6.06;100.00;103936.94;5005978;28;20033;-61
2021/12/18 04:47:46;;;;;;;18.65;11.35;;;;;;;6.05;100.00;103935.06;5011547;28;20036;-61
2021/12/18 04:50:12;;;;;;;16.50;10.57;;;;;;;6.05;100.00;103937.66;5008216;28;20034;-61
2021/12/18 04:52:37;;;;;;;17.52;10.70;;;;;;;6.03;100.00;103942.66;5011067;28;20065;-61
2021/12/18 04:55:04;;;;;;;17.25;11.32;;;;;;;6.03;100.00;103934.91;5011985;28;20529;-61
2021/12/18 04:57:29;;;;;;;15.60;10.82;;;;;;;6.04;100.00;103946.16;5011382;28;20071;-61
2021/12/18 04:59:55;;;;;;;14.50;10.70;;;;;;;6.02;100.00;103946.00;5011473;28;20030;-61
2021/12/18 05:02:25;;;;;;;17.75;11.82;;;;;;;6.01;100.00;103949.31;5011239;28;20033;-61
2021/12/18 05:04:52;;;;;;;19.98;11.98;;;;;;;6.01;100.00;103952.78;5011229;28;20026;-61
2021/12/18 05:07:18;;;;;;;18.35;10.90;;;;;;;6.00;100.00;103953.56;5011478;28;20037;-61
2021/12/18 05:09:43;;;;;;;17.35;11.38;;;;;;;6.00;100.00;103956.13;5011300;28;20029;-61
2021/12/18 05:12:09;;;;;;;17.73;11.50;;;;;;;5.99;100.00;103951.72;5011460;28;20389;-61
2021/12/18 05:14:35;;;;;;;17.63;11.50;;;;;;;5.99;100.00;103956.88;5011431;28;20252;-61
2021/12/18 05:17:00;;;;;;;17.30;11.15;;;;;;;5.98;100.00;103947.34;5011029;28;20029;-61
2021/12/18 05:19:26;;;;;;;17.60;11.30;;;;;;;5.98;100.00;103952.50;5010890;28;20037;-60
2021/12/18 05:21:51;;;;;;;19.85;11.15;;;;;;;5.99;100.00;103956.00;5011183;28;20053;-61
2021/12/18 05:24:17;;;;;;;18.10;11.30;;;;;;;5.98;100.00;103955.06;5011343;28;20037;-61
2021/12/18 05:26:42;;;;;;;17.65;11.68;;;;;;;5.98;100.00;103959.31;5011310;28;20553;-61
2021/12/18 05:29:08;;;;;;;18.65;12.27;;;;;;;5.99;100.00;103954.31;5010272;28;20057;-61
2021/12/18 05:31:34;;;;;;;20.73;12.30;;;;;;;5.99;100.00;103961.13;5010870;28;20028;-61
2021/12/18 05:34:02;;;;;;;20.85;12.32;;;;;;;5.98;100.00;103962.78;5010889;28;20034;-61
2021/12/18 05:38:59;;;;;;;;;;;;;;;5.97;100.00;103953.22;5011364;28;20029;-61
2021/12/18 05:41:25;;;;;;;24.60;13.52;;;;;;;5.96;100.00;103959.16;5010476;28;19971;-61
2021/12/18 05:43:50;;;;;;;22.15;12.95;;;;;;;5.96;100.00;103954.00;5010758;28;20058;-61
2021/12/18 05:46:15;;;;;;;23.48;13.80;;;;;;;5.96;100.00;103956.56;5010865;28;20025;-61
2021/12/18 05:48:40;;;;;;;25.13;13.70;;;;;;;5.96;100.00;103954.00;5010324;28;20034;-61
2021/12/18 05:51:06;;;;;;;28.40;14.80;;;;;;;5.97;100.00;103952.34;5010614;28;20026;-61
2021/12/18 05:53:32;;;;;;;26.83;14.43;;;;;;;5.96;100.00;103946.28;5009900;28;20033;-61
2021/12/18 05:55:58;;;;;;;23.88;13.75;;;;;;;5.96;100.00;103959.16;5010433;28;20034;-60
2021/12/18 05:58:23;;;;;;;27.05;13.68;;;;;;;5.96;100.00;103956.56;5010436;28;20033;-61
2021/12/18 06:00:48;;;;;;;27.55;14.80;;;;;;;5.95;100.00;103965.06;5010386;28;20030;-61
2021/12/18 06:03:14;;;;;;;27.80;14.20;;;;;;;5.93;100.00;103956.28;5010251;28;20048;-61
2021/12/18 06:05:39;;;;;;;28.02;14.40;;;;;;;5.94;100.00;103959.72;5008322;28;20056;-61
2021/12/18 06:08:10;;;;;;;27.08;14.48;;;;;;;5.94;100.00;103963.22;5009333;28;20505;-61
2021/12/18 06:10:37;;;;;;;25.70;13.15;;;;;;;5.92;100.00;103962.16;5010632;28;20477;-61
2021/12/18 06:13:03;;;;;;;25.58;13.50;;;;;;;5.92;100.00;103957.00;5009964;28;20100;-61
2021/12/18 06:15:29;;;;;;;25.42;13.82;;;;;;;5.93;100.00;103958.84;5009937;28;20041;-61
2021/12/18 06:17:57;;;;;;;23.20;12.80;;;;;;;5.92;100.00;103957.00;5009467;28;20029;-61
2021/12/18 06:20:25;;;;;;;25.42;12.43;;;;;;;5.93;100.00;103957.94;5008940;28;20065;-61
2021/12/18 06:22:50;;;;;;;20.92;11.52;;;;;;;5.91;100.00;103960.34;5009816;28;20029;-60
2021/12/18 06:25:16;;;;;;;22.42;12.52;;;;;;;5.91;100.00;103949.13;5010343;28;20022;-60
2021/12/18 06:27:41;;;;;;;22.85;12.07;;;;;;;5.89;100.00;103946.41;5010053;28;20466;-60
2021/12/18 06:30:09;;;;;;;23.35;12.98;;;;;;;5.89;100.00;103957.63;5008972;28;20026;-61
2021/12/18 06:32:35;;;;;;;22.38;11.25;;;;;;;5.86;100.00;103952.13;5009861;28;20018;-60
2021/12/18 06:35:00;;;;;;;20.70;12.88;;;;;;;5.85;100.00;103954.56;5009880;28;20032;-60
2021/12/18 06:37:26;;;;;;;22.08;11.45;;;;;;;5.85;100.00;103952.00;5010064;28;20036;-61
2021/12/18 06:39:51;;;;;;;21.30;11.15;;;;;;;5.84;100.00;103947.59;5010213;28;20033;-61
2021/12/18 06:42:17;;;;;;;20.00;10.27;;;;;;;5.83;100.00;103950.94;5009320;28;20124;-60
2021/12/18 06:44:42;;;;;;;22.88;11.45;;;;;;;5.84;100.00;103950.19;5009725;28;20494;-60
2021/12/18 06:47:08;;;;;;;23.83;11.48;;;;;;;5.81;100.00;103953.34;5009641;28;20026;-60
2021/12/18 06:49:33;;;;;;;19.48;10.52;;;;;;;5.81;100.00;103957.59;5009199;28;20104;-60
2021/12/18 06:51:58;;;;;;;21.80;11.00;;;;;;;5.82;100.00;103954.25;5009254;28;20021;-60
2021/12/18 06:54:24;;;;;;;20.05;10.55;;;;;;;5.83;100.00;103950.94;5009487;28;20026;-61
2021/12/18 06:56:49;;;;;;;22.75;10.93;;;;;;;5.82;100.00;103949.13;5009492;28;20386;-60
2021/12/18 06:59:15;;;;;;;19.88;10.95;;;;;;;5.82;100.00;103949.13;5009176;28;20014;-60
2021/12/18 07:01:40;;;;;;;19.58;10.82;;;;;;;5.84;100.00;103947.59;5009265;28;20041;-60
2021/12/18 07:04:05;;;;;;;22.77;11.32;;;;;;;5.83;100.00;103946.69;5009270;28;20513;-57
2021/12/18 07:06:31;;;;;;;23.05;11.95;;;;;;;5.84;100.00;103942.47;5009448;28;20044;-59
2021/12/18 07:08:56;;;;;;;22.65;11.52;;;;;;;5.84;100.00;103939.88;5009320;28;20143;-60
2021/12/18 07:11:21;;;;;;;23.33;11.50;;;;;;;5.83;100.00;103945.81;5009429;28;20034;-60
2021/12/18 07:13:47;;;;;;;25.17;11.65;;;;;;;5.83;100.00;103946.69;5009282;28;20030;-60
2021/12/18 07:16:12;;;;;;;22.55;11.02;;;;;;;5.84;100.00;103947.59;5008676;28;20025;-61
2021/12/18 07:18:38;;;;;;;23.70;12.27;;;;;;;5.83;100.00;103946.69;5008090;28;20071;-60
2021/12/18 07:21:03;;;;;;;27.50;12.60;;;;;;;5.85;100.00;103945.19;5012092;28;20121;-60
2021/12/18 07:23:29;;;;;;;22.23;10.65;;;;;;;5.87;100.00;103942.75;5011954;28;20057;-60
2021/12/18 07:25:54;;;;;;;24.55;12.73;;;;;;;5.86;100.00;103941.84;5013329;28;20034;-60
2021/12/18 07:28:19;;;;;;;27.23;13.27;;;;;;;5.87;100.00;103940.19;5013174;28;20056;-60
2021/12/18 07:30:45;;;;;;;22.23;10.52;;;;;;;5.87;100.00;103943.69;5013005;28;20037;-60
2021/12/18 07:33:11;;;;;;;28.33;12.52;;;;;;;5.87;100.00;103945.34;5012977;28;20053;-60
2021/12/18 07:35:41;;;;;;;28.63;11.85;;;;;;;5.86;100.00;103941.84;5012859;28;20057;-60
2021/12/18 07:38:07;;;;;;;24.70;11.38;;;;;;;5.89;100.00;103951.56;5012531;28;20087;-61
2021/12/18 07:40:33;;;;;;;26.52;12.02;;;;;;;5.88;100.00;103939.47;5012809;28;20034;-60
2021/12/18 07:42:58;;;;;;;27.88;11.60;;;;;;;5.90;100.00;103948.22;5012609;28;20050;-60
2021/12/18 07:45:24;;;;;;;25.88;12.48;;;;;;;5.91;100.00;103943.97;5011362;28;20084;-60
2021/12/18 07:47:49;;;;;;;33.80;14.02;;;;;;;5.91;100.00;103955.19;5011057;28;20076;-60
2021/12/18 08:13:09;;;;;;;26.88;11.50;;;;;;;5.92;100.00;103954.44;5010271;28;19920;-60
2021/12/18 08:15:35;;;;;;;23.17;10.30;;;;;;;5.92;100.00;103961.28;5008942;28;20053;-60
2021/12/18 08:18:06;;;;;;;25.42;11.55;;;;;;;5.91;100.00;103955.19;5007343;28;20072;-60
2021/12/18 08:20:32;;;;;;;25.40;10.73;;;;;;;5.92;100.00;103956.13;5004354;28;20029;-60
2021/12/18 08:22:57;;;;;;;23.88;10.48;;;;;;;5.93;100.00;103961.41;5004775;28;20026;-60
2021/12/18 08:25:23;;;;;;;24.27;9.82;;;;;;;5.92;100.00;103956.13;5002913;28;20371;-60
2021/12/18 08:27:48;;;;;;;20.88;10.05;;;;;;;5.93;100.00;103953.69;5005800;28;20124;-60
2021/12/18 08:30:14;;;;;;;25.98;11.23;;;;;;;5.94;100.00;103962.31;5009731;28;20061;-60
2021/12/18 08:32:40;;;;;;;20.42;10.13;;;;;;;5.94;100.00;103957.16;5008449;28;20029;-60
2021/12/18 08:35:07;;;;;;;20.92;10.68;;;;;;;5.96;100.00;103958.22;5010285;28;20366;-61
2021/12/18 08:37:32;;;;;;;23.60;9.30;;;;;;;5.94;100.00;103952.94;5008794;28;20042;-60
2021/12/18 08:39:58;;;;;;;24.45;10.25;;;;;;;5.97;100.00;103949.78;5008616;28;20083;-60
2021/12/18 08:42:24;;;;;;;22.58;9.38;;;;;;;5.96;100.00;103948.84;5011344;28;20030;-60
2021/12/18 08:44:50;;;;;;;20.58;9.50;;;;;;;5.97;100.00;103955.81;5010832;28;20033;-60
2021/12/18 08:47:16;;;;;;;22.65;10.35;;;;;;;5.98;100.00;103951.56;5011200;28;20536;-61
2021/12/18 08:49:41;;;;;;;23.70;9.73;;;;;;;5.99;100.00;103959.44;5010320;28;20176;-61
2021/12/18 08:52:07;;;;;;;26.00;9.88;;;;;;;5.99;100.00;103956.88;5010462;28;20100;-61
2021/12/18 08:54:32;;;;;;;26.08;10.88;;;;;;;6.00;100.00;103961.28;5011173;28;20029;-61
2021/12/18 08:56:58;;;;;;;21.88;9.45;;;;;;;6.01;100.00;103955.38;5010348;28;20026;-60
2021/12/18 08:59:23;;;;;;;21.48;9.05;;;;;;;6.03;100.00;103959.78;5010366;28;20033;-60
2021/12/18 09:01:48;;;;;;;17.88;7.95;;;;;;;6.05;100.00;103963.41;5009920;28;20026;-60
2021/12/18 09:04:14;;;;;;;18.25;7.25;;;;;;;6.03;100.00;103960.66;5010832;28;20026;-60
2021/12/18 09:06:39;;;;;;;17.20;7.07;;;;;;;6.03;100.00;103959.78;5009024;28;20101;-61
2021/12/18 09:09:06;;;;;;;14.90;6.70;;;;;;;6.04;100.00;103966.75;5009021;28;20057;-60
2021/12/18 09:11:31;;;;;;;13.57;6.20;;;;;;;6.03;100.00;103959.78;5011465;28;20029;-60
2021/12/18 09:13:57;;;;;;;14.80;6.40;;;;;;;6.05;100.00;103963.41;5009731;28;20394;-61
2021/12/18 09:16:22;;;;;;;11.20;5.25;;;;;;;6.07;100.00;103961.94;5009122;28;20407;-60
2021/12/18 09:18:47;;;;;;;12.82;5.90;;;;;;;6.08;100.00;103963.75;5009685;28;20436;-60
2021/12/18 09:21:13;;;;;;;10.77;5.32;;;;;;;6.08;100.00;103959.50;5008107;28;20026;-61
2021/12/18 09:23:38;;;;;;;11.32;5.10;;;;;;;6.09;100.00;103960.41;5010264;28;20026;-61
2021/12/18 09:26:04;;;;;;;10.13;4.50;;;;;;;6.07;100.00;103956.78;5009606;28;20032;-61
2021/12/18 09:28:29;;;;;;;11.13;4.55;;;;;;;6.09;100.00;103960.41;5008319;28;20029;-61
2021/12/18 09:30:54;;;;;;;14.05;5.35;;;;;;;6.11;100.00;103958.91;5009565;28;20272;-61
2021/12/18 09:33:20;;;;;;;10.50;4.45;;;;;;;6.14;100.00;103964.38;5008843;28;20026;-61
2021/12/18 09:35:46;;;;;;;6.25;3.60;;;;;;;6.16;100.00;103957.72;5010119;28;20436;-59
2021/12/18 09:38:11;;;;;;;8.57;4.10;;;;;;;6.18;100.00;103961.34;5009761;28;20068;-60
2021/12/18 09:40:37;;;;;;;10.57;3.88;;;;;;;6.20;100.00;103962.41;5008619;28;20087;-61
2021/12/18 09:43:03;;;;;;;8.82;4.07;;;;;;;6.20;100.00;103957.28;5008608;28;20052;-61
2021/12/18 09:45:29;;;;;;;10.05;5.28;;;;;;;6.21;100.00;103961.66;5010454;28;20034;-60
2021/12/18 09:47:55;;;;;;;10.45;4.22;;;;;;;6.22;100.00;103963.47;5009070;28;20025;-61
2021/12/18 09:50:24;;;;;;;9.88;5.72;;;;;;;6.22;100.00;103948.00;5011707;28;20041;-60
2021/12/18 09:52:50;;;;;;;9.68;4.63;;;;;;;6.19;100.00;103951.97;5009713;28;20461;-59
2021/12/18 09:55:17;;;;;;;10.80;5.22;;;;;;;6.20;100.00;103951.19;5010374;28;20030;-60
2021/12/18 09:57:43;;;;;;;10.40;4.80;;;;;;;6.21;100.00;103947.84;5010002;28;20088;-60
2021/12/18 10:00:12;;;;;;;10.38;5.32;;;;;;;6.20;100.00;103944.41;5008604;28;20037;-61
2021/12/18 10:02:39;;;;;;;11.98;6.28;;;;;;;6.23;100.00;103943.78;5007119;28;20057;-60
2021/12/18 10:05:04;;;;;;;11.38;5.60;;;;;;;6.24;100.00;103936.19;5009012;28;20033;-60
2021/12/18 10:07:30;;;;;;;12.35;6.10;;;;;;;6.27;100.00;103938.19;5008124;28;20422;-60
2021/12/18 10:09:58;;;;;;;12.05;5.60;;;;;;;6.28;100.00;103931.38;5008856;28;20036;-60
2021/12/18 10:12:33;;;;;;;10.95;5.65;;;;;;;6.29;100.00;103935.75;5009895;28;20378;-60
2021/12/18 10:15:13;;;;;;;10.77;5.50;;;;;;;6.29;100.00;103938.31;5006526;28;20644;-59
2021/12/18 10:17:42;;;;;;;10.23;4.60;;;;;;;6.28;100.00;103931.38;5004868;28;20029;-60
2021/12/18 10:20:10;;;;;;;9.80;4.70;;;;;;;6.27;100.00;103932.09;5007599;28;20481;-60
2021/12/18 10:22:46;;;;;;;9.07;4.38;;;;;;;6.28;100.00;103926.22;5005542;28;20080;-60
2021/12/18 10:25:13;;;;;;;7.88;3.90;;;;;;;6.27;100.00;103929.53;5007682;28;20531;-61
2021/12/18 10:27:41;;;;;;;7.25;4.22;;;;;;;6.29;100.00;103933.19;5008255;28;20444;-61
2021/12/18 10:30:16;;;;;;;6.78;3.80;;;;;;;6.29;100.00;103931.53;5007498;28;20021;-61
2021/12/18 10:32:54;;;;;;;7.40;4.15;;;;;;;6.29;100.00;103923.78;5007523;28;20072;-60
2021/12/18 10:35:20;;;;;;;6.47;3.80;;;;;;;6.29;100.00;103925.44;5008395;28;20111;-61
2021/12/18 10:37:45;;;;;;;6.88;3.67;;;;;;;6.29;100.00;103922.88;5007951;28;20026;-60
2021/12/18 10:40:11;;;;;;;7.57;4.15;;;;;;;6.29;100.00;103931.53;5007791;28;20033;-60
2021/12/18 10:42:39;;;;;;;7.95;4.35;;;;;;;6.28;100.00;103929.69;5008452;28;20500;-60
2021/12/18 10:45:08;;;;;;;8.23;4.30;;;;;;;6.29;100.00;103923.78;5008443;28;20032;-61
2021/12/18 10:47:54;;;;;;;7.28;5.00;;;;;;;6.28;100.00;103923.66;5008935;28;20026;-61
2021/12/18 10:50:34;;;;;;;7.00;4.32;;;;;;;6.28;100.00;103919.38;5009070;28;20033;-61
2021/12/18 10:53:09;;;;;;;5.95;4.07;;;;;;;6.27;100.00;103919.22;5005904;28;20022;-61
2021/12/18 10:56:00;;;;;;;7.13;4.07;;;;;;;6.26;100.00;103913.16;5007372;28;20390;-60
2021/12/18 10:58:37;;;;;;;6.20;4.30;;;;;;;6.27;100.00;103908.94;5009703;28;20601;-61
2021/12/18 11:01:09;;;;;;;6.45;3.70;;;;;;;6.27;100.00;103908.94;5007618;28;20021;-60
2021/12/18 11:03:49;;;;;;;5.78;3.85;;;;;;;6.26;100.00;103917.44;5006091;28;20112;-61
2021/12/18 11:06:26;;;;;;;5.28;3.42;;;;;;;6.26;100.00;103915.75;5005837;28;20429;-60
2021/12/18 11:09:27;;;;;;;5.07;3.38;;;;;;;6.28;100.00;103918.50;5006815;28;20022;-61
2021/12/18 11:14:36;;;;;;;5.30;3.40;;;;;;;6.32;100.00;103912.88;5008287;28;20541;-61
2021/12/18 11:17:04;;;;;;;6.45;3.83;;;;;;;6.29;100.00;103907.41;5009152;28;20026;-61
2021/12/18 11:19:31;;;;;;;6.03;4.05;;;;;;;6.28;100.00;103913.34;5008054;28;20393;-60
2021/12/18 11:21:57;;;;;;;5.90;4.00;;;;;;;6.25;100.00;103916.50;5009249;28;20022;-60
2021/12/18 11:25:03;;;;;;;8.43;4.50;;;;;;;6.24;100.00;103918.16;5008698;28;20069;-59
2021/12/18 11:27:32;;;;;;;7.82;4.55;;;;;;;6.24;100.00;103910.44;4966646;28;20093;-60
2021/12/18 11:30:01;;;;;;;6.32;4.38;;;;;;;6.26;100.00;103914.84;4966766;28;20035;-61
2021/12/18 11:32:29;;;;;;;7.63;4.43;;;;;;;6.26;100.00;103907.13;4967029;28;20471;-61
2021/12/18 11:34:57;;;;;;;9.23;5.15;;;;;;;6.24;100.00;103905.28;4965535;28;20105;-61
2021/12/18 11:37:24;;;;;;;8.50;4.90;;;;;;;6.27;100.00;103911.50;4964702;28;20178;-61
2021/12/18 11:39:54;;;;;;;9.88;6.85;;;;;;;6.24;100.00;103905.28;4967023;28;20044;-61
2021/12/18 11:42:27;;;;;;;9.07;6.47;;;;;;;6.20;100.00;103898.03;4967455;28;20049;-60
2021/12/18 11:44:56;;;;;;;11.02;7.20;;;;;;;6.21;100.00;103897.25;4966726;28;20047;-61
2021/12/18 11:47:54;;;;;;;9.48;6.25;;;;;;;6.22;100.00;103895.59;4966924;28;20039;-61
2021/12/18 11:50:29;;;;;;;12.52;8.57;;;;;;;6.21;100.00;103899.84;4966941;28;20484;-61
2021/12/18 11:53:04;;;;;;;13.70;7.70;;;;;;;6.20;100.00;103895.47;4966721;28;20027;-60
2021/12/18 11:55:48;;;;;;;11.40;8.25;;;;;;;6.20;100.00;103899.69;4966832;28;20030;-60
2021/12/18 11:58:20;;;;;;;10.88;6.55;;;;;;;6.21;100.00;103888.63;4966319;28;20061;-60
2021/12/18 12:00:58;;;;;;;9.52;6.53;;;;;;;6.20;100.00;103887.72;4967232;28;20495;-61
2021/12/18 12:03:53;;;;;;;7.95;6.25;;;;;;;6.20;100.00;103882.59;4971035;28;20053;-60
2021/12/18 12:06:18;;;;;;;9.82;7.10;;;;;;;6.20;100.00;103884.25;5009494;28;20034;-61
2021/12/18 12:08:45;;;;;;;8.82;6.65;;;;;;;6.18;100.00;103873.78;5011255;28;20481;-61
2021/12/18 12:11:16;;;;;;;9.88;7.57;;;;;;;6.18;100.00;103878.94;5010697;28;20077;-61
2021/12/18 12:14:01;;;;;;;10.38;8.43;;;;;;;6.17;100.00;103871.94;5012108;28;20026;-61
2021/12/18 12:16:44;;;;;;;10.65;8.05;;;;;;;6.17;100.00;103869.38;5012016;28;20037;-61
2021/12/18 12:19:14;;;;;;;12.20;8.57;;;;;;;6.20;100.00;103871.38;5012528;28;20034;-61
2021/12/18 12:21:48;;;;;;;11.35;8.57;;;;;;;6.20;100.00;103866.22;5011806;28;20033;-61
2021/12/18 12:24:16;;;;;;;9.30;7.72;;;;;;;6.19;100.00;103860.16;5011688;28;20746;-61
2021/12/18 12:26:41;;;;;;;9.55;8.55;;;;;;;6.16;100.00;103859.84;5012376;28;20025;-60
2021/12/18 12:29:08;;;;;;;11.82;9.10;;;;;;;6.15;100.00;103862.28;5010582;28;20029;-61
2021/12/18 12:31:35;;;;;;;11.50;8.93;;;;;;;6.13;100.00;103864.69;5011783;28;20140;-61
2021/12/18 12:34:23;;;;;;;14.20;9.38;;;;;;;6.13;100.00;103862.13;5009457;28;20112;-60
2021/12/18 12:40:35;;;;;;;9.45;7.72;;;;;;;6.09;100.00;103852.28;5011090;28;20040;-61